Terminal Aerodrome Forecast
Issued by NWS Rapid City, SD

Home | Current Version | Previous Version | Text Only | Print | Product List | Glossary Off
Versions: 1 2 3 4 5 6 7 8 9 10 11 12 13

000
FTUS43 KUNR 251100
TAFRAP
TAF
KRAP 251120Z 2512/2612 36008KT 2SM -SN BR OVC006
     FM251500 35015KT 3/4SM -SN BR VV006
     FM260300 34010KT P6SM BKN025=

USA.gov is the U.S. government's official web portal to all federal, state and local government web resources and services.